Kimballs, Vermont
Current Conditions -  °F | °C
As of 3:43 AM on Friday 28 Nov 2014 (Local Time) from KBTV Reporting Station
Light Snow Light Snow  
Wind Chill: 26°   Ceiling: 2100
Heat Index: 26°   Visibility: 1.2mi
Dew Point: 22°   Wind: 0mph
Humidity: 84%   Direction: NA
Pressure: 30.04"   Gusts: NA
Location:  44.2438°N, 73.1915°W
Report Text: KBTV 280843Z AUTO 00000KT 1 1/4SM -SN BR BKN021 OVC034 M03/M06 A3004 RMK AO2 P0001 T10331056
Loading
Personal Weather Stations






























Interactive Weather Map New forecast layout! Learn more

10-Day Weather Forecast

Advertisements
Track Severe Weather on mobile